sensor_id;sensor_type;location;lat;lon;timestamp;P1;durP1;ratioP1;P2;durP2;ratioP2
86007;SDS011;76587;41.936;25.550;2024-03-29T00:00:35;19.48;;;7.45;;
86007;SDS011;76587;41.936;25.550;2024-03-29T00:03:01;30.88;;;8.40;;
86007;SDS011;76587;41.936;25.550;2024-03-29T00:05:26;25.90;;;7.28;;
86007;SDS011;76587;41.936;25.550;2024-03-29T00:07:52;30.25;;;9.65;;
86007;SDS011;76587;41.936;25.550;2024-03-29T00:10:17;32.85;;;10.77;;
86007;SDS011;76587;41.936;25.550;2024-03-29T00:12:43;27.10;;;9.73;;
86007;SDS011;76587;41.936;25.550;2024-03-29T00:15:09;26.10;;;6.70;;
86007;SDS011;76587;41.936;25.550;2024-03-29T00:17:35;33.90;;;8.70;;
86007;SDS011;76587;41.936;25.550;2024-03-29T00:20:00;31.73;;;7.50;;
86007;SDS011;76587;41.936;25.550;2024-03-29T00:22:26;26.35;;;7.00;;
86007;SDS011;76587;41.936;25.550;2024-03-29T00:24:53;25.48;;;7.30;;
86007;SDS011;76587;41.936;25.550;2024-03-29T00:27:18;27.33;;;6.03;;
86007;SDS011;76587;41.936;25.550;2024-03-29T00:29:44;31.30;;;7.78;;
86007;SDS011;76587;41.936;25.550;2024-03-29T00:32:12;29.98;;;7.05;;
86007;SDS011;76587;41.936;25.550;2024-03-29T00:34:37;23.83;;;7.20;;
86007;SDS011;76587;41.936;25.550;2024-03-29T00:37:03;25.92;;;9.23;;
86007;SDS011;76587;41.936;25.550;2024-03-29T00:39:29;27.10;;;9.68;;
86007;SDS011;76587;41.936;25.550;2024-03-29T00:41:54;21.25;;;7.38;;
86007;SDS011;76587;41.936;25.550;2024-03-29T00:44:20;23.10;;;7.47;;
86007;SDS011;76587;41.936;25.550;2024-03-29T00:46:45;18.35;;;6.95;;
86007;SDS011;76587;41.936;25.550;2024-03-29T00:49:10;27.45;;;8.35;;
86007;SDS011;76587;41.936;25.550;2024-03-29T00:51:36;24.08;;;7.85;;
86007;SDS011;76587;41.936;25.550;2024-03-29T00:54:01;28.95;;;7.10;;
86007;SDS011;76587;41.936;25.550;2024-03-29T00:56:27;28.13;;;8.20;;
86007;SDS011;76587;41.936;25.550;2024-03-29T00:58:52;26.60;;;6.47;;
86007;SDS011;76587;41.936;25.550;2024-03-29T01:01:17;17.23;;;7.13;;
86007;SDS011;76587;41.936;25.550;2024-03-29T01:03:43;30.90;;;7.97;;
86007;SDS011;76587;41.936;25.550;2024-03-29T01:06:08;22.58;;;6.20;;
86007;SDS011;76587;41.936;25.550;2024-03-29T01:08:34;29.70;;;7.60;;
86007;SDS011;76587;41.936;25.550;2024-03-29T01:10:59;25.90;;;5.63;;
86007;SDS011;76587;41.936;25.550;2024-03-29T01:13:25;21.60;;;6.55;;
86007;SDS011;76587;41.936;25.550;2024-03-29T01:15:50;30.95;;;7.18;;
86007;SDS011;76587;41.936;25.550;2024-03-29T01:18:15;29.77;;;5.53;;
86007;SDS011;76587;41.936;25.550;2024-03-29T01:20:41;24.83;;;7.75;;
86007;SDS011;76587;41.936;25.550;2024-03-29T01:23:07;25.08;;;6.93;;
86007;SDS011;76587;41.936;25.550;2024-03-29T01:25:33;18.35;;;5.88;;
86007;SDS011;76587;41.936;25.550;2024-03-29T01:27:59;32.05;;;7.25;;
86007;SDS011;76587;41.936;25.550;2024-03-29T01:30:24;28.67;;;6.43;;
86007;SDS011;76587;41.936;25.550;2024-03-29T01:32:51;23.45;;;5.72;;
86007;SDS011;76587;41.936;25.550;2024-03-29T01:35:17;29.48;;;7.25;;
86007;SDS011;76587;41.936;25.550;2024-03-29T01:37:42;33.17;;;6.18;;
86007;SDS011;76587;41.936;25.550;2024-03-29T01:40:08;23.98;;;5.10;;
86007;SDS011;76587;41.936;25.550;2024-03-29T01:42:35;19.08;;;5.43;;
86007;SDS011;76587;41.936;25.550;2024-03-29T01:45:00;28.33;;;5.82;;
86007;SDS011;76587;41.936;25.550;2024-03-29T01:47:26;26.52;;;6.90;;
86007;SDS011;76587;41.936;25.550;2024-03-29T01:49:51;27.33;;;5.53;;
86007;SDS011;76587;41.936;25.550;2024-03-29T01:52:17;17.05;;;4.65;;
86007;SDS011;76587;41.936;25.550;2024-03-29T01:54:44;30.08;;;5.35;;
86007;SDS011;76587;41.936;25.550;2024-03-29T01:57:12;34.10;;;7.45;;
86007;SDS011;76587;41.936;25.550;2024-03-29T01:59:38;25.35;;;6.38;;
86007;SDS011;76587;41.936;25.550;2024-03-29T02:02:05;21.92;;;5.57;;
86007;SDS011;76587;41.936;25.550;2024-03-29T02:04:31;22.60;;;5.22;;
86007;SDS011;76587;41.936;25.550;2024-03-29T02:06:57;22.00;;;5.50;;
86007;SDS011;76587;41.936;25.550;2024-03-29T02:09:22;28.40;;;5.75;;
86007;SDS011;76587;41.936;25.550;2024-03-29T02:11:48;36.10;;;7.22;;
86007;SDS011;76587;41.936;25.550;2024-03-29T02:14:13;27.70;;;8.70;;
86007;SDS011;76587;41.936;25.550;2024-03-29T02:16:39;23.35;;;6.35;;
86007;SDS011;76587;41.936;25.550;2024-03-29T02:19:04;32.10;;;8.80;;
86007;SDS011;76587;41.936;25.550;2024-03-29T02:21:31;28.75;;;7.55;;
86007;SDS011;76587;41.936;25.550;2024-03-29T02:24:06;28.15;;;7.03;;
86007;SDS011;76587;41.936;25.550;2024-03-29T02:26:33;26.77;;;7.40;;
86007;SDS011;76587;41.936;25.550;2024-03-29T02:29:01;21.65;;;6.18;;
86007;SDS011;76587;41.936;25.550;2024-03-29T02:31:27;27.08;;;6.97;;
86007;SDS011;76587;41.936;25.550;2024-03-29T02:33:53;22.38;;;6.45;;
86007;SDS011;76587;41.936;25.550;2024-03-29T02:36:18;27.02;;;6.70;;
86007;SDS011;76587;41.936;25.550;2024-03-29T02:38:44;22.27;;;5.70;;
86007;SDS011;76587;41.936;25.550;2024-03-29T02:41:09;29.90;;;6.57;;
86007;SDS011;76587;41.936;25.550;2024-03-29T02:43:35;32.08;;;7.68;;
86007;SDS011;76587;41.936;25.550;2024-03-29T02:46:00;28.00;;;9.05;;
86007;SDS011;76587;41.936;25.550;2024-03-29T02:48:26;30.10;;;8.48;;
86007;SDS011;76587;41.936;25.550;2024-03-29T02:50:51;32.83;;;8.82;;
86007;SDS011;76587;41.936;25.550;2024-03-29T02:53:17;24.27;;;8.48;;
86007;SDS011;76587;41.936;25.550;2024-03-29T02:55:42;21.38;;;7.97;;
86007;SDS011;76587;41.936;25.550;2024-03-29T02:58:08;20.95;;;5.80;;
86007;SDS011;76587;41.936;25.550;2024-03-29T03:00:33;20.60;;;5.30;;
86007;SDS011;76587;41.936;25.550;2024-03-29T03:02:59;28.80;;;7.32;;
86007;SDS011;76587;41.936;25.550;2024-03-29T03:05:24;22.92;;;5.93;;
86007;SDS011;76587;41.936;25.550;2024-03-29T03:07:50;16.65;;;5.30;;
86007;SDS011;76587;41.936;25.550;2024-03-29T03:10:34;23.83;;;5.57;;
86007;SDS011;76587;41.936;25.550;2024-03-29T03:13:17;22.27;;;6.78;;
86007;SDS011;76587;41.936;25.550;2024-03-29T03:15:43;21.30;;;5.78;;
86007;SDS011;76587;41.936;25.550;2024-03-29T03:18:08;27.60;;;5.90;;
86007;SDS011;76587;41.936;25.550;2024-03-29T03:20:34;27.08;;;8.00;;
86007;SDS011;76587;41.936;25.550;2024-03-29T03:22:59;34.13;;;8.43;;
86007;SDS011;76587;41.936;25.550;2024-03-29T03:25:26;21.00;;;5.90;;
86007;SDS011;76587;41.936;25.550;2024-03-29T03:27:52;21.80;;;5.82;;
86007;SDS011;76587;41.936;25.550;2024-03-29T03:30:18;25.17;;;8.05;;
86007;SDS011;76587;41.936;25.550;2024-03-29T03:32:43;24.83;;;7.70;;
86007;SDS011;76587;41.936;25.550;2024-03-29T03:35:09;19.42;;;9.10;;
86007;SDS011;76587;41.936;25.550;2024-03-29T03:37:35;23.05;;;6.32;;
86007;SDS011;76587;41.936;25.550;2024-03-29T03:40:00;25.67;;;7.68;;
86007;SDS011;76587;41.936;25.550;2024-03-29T03:42:25;31.38;;;12.10;;
86007;SDS011;76587;41.936;25.550;2024-03-29T03:44:51;34.03;;;9.05;;
86007;SDS011;76587;41.936;25.550;2024-03-29T03:47:16;32.55;;;8.77;;
86007;SDS011;76587;41.936;25.550;2024-03-29T03:49:42;34.45;;;7.78;;
86007;SDS011;76587;41.936;25.550;2024-03-29T03:52:07;22.23;;;7.00;;
86007;SDS011;76587;41.936;25.550;2024-03-29T03:54:33;26.42;;;8.73;;
86007;SDS011;76587;41.936;25.550;2024-03-29T03:56:59;28.23;;;7.32;;
86007;SDS011;76587;41.936;25.550;2024-03-29T03:59:25;19.60;;;6.07;;
86007;SDS011;76587;41.936;25.550;2024-03-29T04:01:50;27.30;;;7.03;;
86007;SDS011;76587;41.936;25.550;2024-03-29T04:04:17;20.40;;;6.65;;
86007;SDS011;76587;41.936;25.550;2024-03-29T04:06:43;25.98;;;6.47;;
86007;SDS011;76587;41.936;25.550;2024-03-29T04:09:08;17.83;;;5.90;;
86007;SDS011;76587;41.936;25.550;2024-03-29T04:11:34;30.10;;;8.30;;
86007;SDS011;76587;41.936;25.550;2024-03-29T04:13:59;18.90;;;6.32;;
86007;SDS011;76587;41.936;25.550;2024-03-29T04:16:25;25.60;;;7.43;;
86007;SDS011;76587;41.936;25.550;2024-03-29T04:18:50;19.67;;;5.95;;
86007;SDS011;76587;41.936;25.550;2024-03-29T04:21:15;25.77;;;7.13;;
86007;SDS011;76587;41.936;25.550;2024-03-29T04:23:41;27.33;;;7.95;;
86007;SDS011;76587;41.936;25.550;2024-03-29T04:26:06;20.02;;;7.63;;
86007;SDS011;76587;41.936;25.550;2024-03-29T04:28:32;31.77;;;8.90;;
86007;SDS011;76587;41.936;25.550;2024-03-29T04:30:58;27.55;;;7.68;;
86007;SDS011;76587;41.936;25.550;2024-03-29T04:33:24;27.05;;;7.40;;
86007;SDS011;76587;41.936;25.550;2024-03-29T04:35:56;25.48;;;8.20;;
86007;SDS011;76587;41.936;25.550;2024-03-29T04:38:22;33.05;;;9.55;;
86007;SDS011;76587;41.936;25.550;2024-03-29T04:40:48;38.58;;;9.73;;
86007;SDS011;76587;41.936;25.550;2024-03-29T04:43:15;30.45;;;7.63;;
86007;SDS011;76587;41.936;25.550;2024-03-29T04:45:40;26.30;;;6.85;;
86007;SDS011;76587;41.936;25.550;2024-03-29T04:48:06;24.48;;;7.00;;
86007;SDS011;76587;41.936;25.550;2024-03-29T04:50:32;21.67;;;6.63;;
86007;SDS011;76587;41.936;25.550;2024-03-29T04:52:57;23.02;;;5.93;;
86007;SDS011;76587;41.936;25.550;2024-03-29T04:55:23;24.40;;;7.07;;
86007;SDS011;76587;41.936;25.550;2024-03-29T04:57:48;32.25;;;7.32;;
86007;SDS011;76587;41.936;25.550;2024-03-29T05:00:13;24.25;;;7.05;;
86007;SDS011;76587;41.936;25.550;2024-03-29T05:02:39;22.38;;;6.53;;
86007;SDS011;76587;41.936;25.550;2024-03-29T05:05:04;29.02;;;7.70;;
86007;SDS011;76587;41.936;25.550;2024-03-29T05:07:30;18.92;;;6.05;;
86007;SDS011;76587;41.936;25.550;2024-03-29T05:09:55;13.50;;;4.60;;
86007;SDS011;76587;41.936;25.550;2024-03-29T05:12:21;19.33;;;7.60;;
86007;SDS011;76587;41.936;25.550;2024-03-29T05:14:46;26.85;;;9.10;;
86007;SDS011;76587;41.936;25.550;2024-03-29T05:17:14;24.50;;;10.13;;
86007;SDS011;76587;41.936;25.550;2024-03-29T05:19:40;23.58;;;10.98;;
86007;SDS011;76587;41.936;25.550;2024-03-29T05:22:05;20.63;;;9.68;;
86007;SDS011;76587;41.936;25.550;2024-03-29T05:24:31;23.08;;;8.18;;
86007;SDS011;76587;41.936;25.550;2024-03-29T05:26:56;26.77;;;8.18;;
86007;SDS011;76587;41.936;25.550;2024-03-29T05:29:22;22.35;;;7.43;;
86007;SDS011;76587;41.936;25.550;2024-03-29T05:31:47;29.00;;;10.30;;
86007;SDS011;76587;41.936;25.550;2024-03-29T05:34:13;16.38;;;4.53;;
86007;SDS011;76587;41.936;25.550;2024-03-29T05:36:39;16.27;;;5.40;;
86007;SDS011;76587;41.936;25.550;2024-03-29T05:39:05;19.02;;;5.20;;
86007;SDS011;76587;41.936;25.550;2024-03-29T05:41:30;16.05;;;5.57;;
86007;SDS011;76587;41.936;25.550;2024-03-29T05:43:57;11.65;;;4.32;;
86007;SDS011;76587;41.936;25.550;2024-03-29T05:46:23;15.82;;;5.47;;
86007;SDS011;76587;41.936;25.550;2024-03-29T05:48:48;17.45;;;5.03;;
86007;SDS011;76587;41.936;25.550;2024-03-29T05:51:14;20.75;;;5.75;;
86007;SDS011;76587;41.936;25.550;2024-03-29T05:53:39;16.33;;;5.15;;
86007;SDS011;76587;41.936;25.550;2024-03-29T05:56:05;12.85;;;4.90;;
86007;SDS011;76587;41.936;25.550;2024-03-29T05:58:32;16.38;;;4.65;;
86007;SDS011;76587;41.936;25.550;2024-03-29T06:00:59;15.27;;;5.63;;
86007;SDS011;76587;41.936;25.550;2024-03-29T06:03:24;15.18;;;5.45;;
86007;SDS011;76587;41.936;25.550;2024-03-29T06:05:49;16.35;;;5.32;;
86007;SDS011;76587;41.936;25.550;2024-03-29T06:08:15;17.30;;;5.97;;
86007;SDS011;76587;41.936;25.550;2024-03-29T06:10:40;18.67;;;5.60;;
86007;SDS011;76587;41.936;25.550;2024-03-29T06:13:06;11.10;;;4.65;;
86007;SDS011;76587;41.936;25.550;2024-03-29T06:15:50;13.02;;;6.22;;
86007;SDS011;76587;41.936;25.550;2024-03-29T06:18:34;13.07;;;5.25;;
86007;SDS011;76587;41.936;25.550;2024-03-29T06:20:59;15.27;;;5.00;;
86007;SDS011;76587;41.936;25.550;2024-03-29T06:23:24;15.00;;;5.75;;
86007;SDS011;76587;41.936;25.550;2024-03-29T06:25:50;16.25;;;5.43;;
86007;SDS011;76587;41.936;25.550;2024-03-29T06:28:16;10.40;;;4.75;;
86007;SDS011;76587;41.936;25.550;2024-03-29T06:30:42;15.05;;;5.32;;
86007;SDS011;76587;41.936;25.550;2024-03-29T06:33:08;11.65;;;4.65;;
86007;SDS011;76587;41.936;25.550;2024-03-29T06:35:33;11.23;;;5.05;;
86007;SDS011;76587;41.936;25.550;2024-03-29T06:37:58;13.60;;;4.53;;
86007;SDS011;76587;41.936;25.550;2024-03-29T06:40:24;11.52;;;5.55;;
86007;SDS011;76587;41.936;25.550;2024-03-29T06:42:50;10.02;;;6.22;;
86007;SDS011;76587;41.936;25.550;2024-03-29T06:45:16;12.23;;;4.90;;
86007;SDS011;76587;41.936;25.550;2024-03-29T06:47:41;12.85;;;4.97;;
86007;SDS011;76587;41.936;25.550;2024-03-29T06:50:07;14.60;;;4.60;;
86007;SDS011;76587;41.936;25.550;2024-03-29T06:52:33;16.52;;;6.63;;
86007;SDS011;76587;41.936;25.550;2024-03-29T06:54:58;14.75;;;5.40;;
86007;SDS011;76587;41.936;25.550;2024-03-29T06:57:24;11.15;;;4.10;;
86007;SDS011;76587;41.936;25.550;2024-03-29T06:59:54;11.38;;;6.18;;
86007;SDS011;76587;41.936;25.550;2024-03-29T07:02:19;15.88;;;3.95;;
86007;SDS011;76587;41.936;25.550;2024-03-29T07:04:45;9.13;;;3.60;;
86007;SDS011;76587;41.936;25.550;2024-03-29T07:07:10;10.20;;;4.57;;
86007;SDS011;76587;41.936;25.550;2024-03-29T07:09:36;10.05;;;3.85;;
86007;SDS011;76587;41.936;25.550;2024-03-29T07:12:01;9.98;;;4.25;;
86007;SDS011;76587;41.936;25.550;2024-03-29T07:14:27;10.65;;;4.38;;
86007;SDS011;76587;41.936;25.550;2024-03-29T07:16:53;10.32;;;3.85;;
86007;SDS011;76587;41.936;25.550;2024-03-29T07:19:19;8.18;;;3.90;;
86007;SDS011;76587;41.936;25.550;2024-03-29T07:21:46;10.73;;;4.85;;
86007;SDS011;76587;41.936;25.550;2024-03-29T07:24:11;7.20;;;4.45;;
86007;SDS011;76587;41.936;25.550;2024-03-29T07:26:37;10.68;;;4.00;;
86007;SDS011;76587;41.936;25.550;2024-03-29T07:29:03;9.68;;;3.80;;
86007;SDS011;76587;41.936;25.550;2024-03-29T07:31:30;9.98;;;3.55;;
86007;SDS011;76587;41.936;25.550;2024-03-29T07:33:56;7.65;;;2.65;;
86007;SDS011;76587;41.936;25.550;2024-03-29T07:36:22;10.18;;;3.78;;
86007;SDS011;76587;41.936;25.550;2024-03-29T07:38:50;8.75;;;3.90;;
86007;SDS011;76587;41.936;25.550;2024-03-29T07:41:15;9.88;;;3.55;;
86007;SDS011;76587;41.936;25.550;2024-03-29T07:43:51;5.90;;;3.35;;
86007;SDS011;76587;41.936;25.550;2024-03-29T07:46:19;9.68;;;4.47;;
86007;SDS011;76587;41.936;25.550;2024-03-29T07:48:44;8.43;;;3.80;;
86007;SDS011;76587;41.936;25.550;2024-03-29T07:51:10;7.72;;;3.10;;
86007;SDS011;76587;41.936;25.550;2024-03-29T07:53:35;5.55;;;3.13;;
86007;SDS011;76587;41.936;25.550;2024-03-29T07:56:00;8.40;;;3.60;;
86007;SDS011;76587;41.936;25.550;2024-03-29T07:58:26;8.77;;;4.30;;
86007;SDS011;76587;41.936;25.550;2024-03-29T08:00:52;5.85;;;2.60;;
86007;SDS011;76587;41.936;25.550;2024-03-29T08:03:18;4.35;;;2.83;;
86007;SDS011;76587;41.936;25.550;2024-03-29T08:05:53;6.75;;;3.15;;
86007;SDS011;76587;41.936;25.550;2024-03-29T08:08:22;11.02;;;4.25;;
86007;SDS011;76587;41.936;25.550;2024-03-29T08:10:50;7.03;;;3.60;;
86007;SDS011;76587;41.936;25.550;2024-03-29T08:13:15;4.30;;;3.58;;
86007;SDS011;76587;41.936;25.550;2024-03-29T08:15:42;4.07;;;2.55;;
86007;SDS011;76587;41.936;25.550;2024-03-29T08:18:07;10.00;;;3.42;;
86007;SDS011;76587;41.936;25.550;2024-03-29T08:20:33;5.68;;;2.63;;
86007;SDS011;76587;41.936;25.550;2024-03-29T08:22:59;6.65;;;3.08;;
86007;SDS011;76587;41.936;25.550;2024-03-29T08:25:25;4.97;;;2.25;;
86007;SDS011;76587;41.936;25.550;2024-03-29T08:27:52;4.47;;;2.97;;
86007;SDS011;76587;41.936;25.550;2024-03-29T08:30:23;8.45;;;2.75;;
86007;SDS011;76587;41.936;25.550;2024-03-29T08:32:53;5.13;;;2.92;;
86007;SDS011;76587;41.936;25.550;2024-03-29T08:35:19;8.93;;;2.83;;
86007;SDS011;76587;41.936;25.550;2024-03-29T08:37:45;5.60;;;3.00;;
86007;SDS011;76587;41.936;25.550;2024-03-29T08:40:11;5.90;;;2.58;;
86007;SDS011;76587;41.936;25.550;2024-03-29T08:42:36;5.65;;;3.05;;
86007;SDS011;76587;41.936;25.550;2024-03-29T08:45:03;5.38;;;3.05;;
86007;SDS011;76587;41.936;25.550;2024-03-29T08:47:31;5.95;;;2.80;;
86007;SDS011;76587;41.936;25.550;2024-03-29T08:49:56;7.65;;;3.05;;
86007;SDS011;76587;41.936;25.550;2024-03-29T08:52:22;3.75;;;2.75;;
86007;SDS011;76587;41.936;25.550;2024-03-29T08:54:47;11.27;;;4.50;;
86007;SDS011;76587;41.936;25.550;2024-03-29T08:57:13;5.18;;;2.92;;
86007;SDS011;76587;41.936;25.550;2024-03-29T08:59:38;4.90;;;3.10;;
86007;SDS011;76587;41.936;25.550;2024-03-29T09:02:04;6.47;;;2.92;;
86007;SDS011;76587;41.936;25.550;2024-03-29T09:04:33;6.63;;;3.30;;
86007;SDS011;76587;41.936;25.550;2024-03-29T09:07:01;4.00;;;3.22;;
86007;SDS011;76587;41.936;25.550;2024-03-29T09:09:28;6.70;;;3.53;;
86007;SDS011;76587;41.936;25.550;2024-03-29T09:11:57;7.80;;;3.00;;
86007;SDS011;76587;41.936;25.550;2024-03-29T09:14:23;4.32;;;3.05;;
86007;SDS011;76587;41.936;25.550;2024-03-29T09:16:50;4.35;;;3.33;;
86007;SDS011;76587;41.936;25.550;2024-03-29T09:19:15;4.38;;;2.90;;
86007;SDS011;76587;41.936;25.550;2024-03-29T09:21:41;5.53;;;2.40;;
86007;SDS011;76587;41.936;25.550;2024-03-29T09:24:06;5.85;;;2.85;;
86007;SDS011;76587;41.936;25.550;2024-03-29T09:26:32;4.30;;;2.80;;
86007;SDS011;76587;41.936;25.550;2024-03-29T09:28:58;3.50;;;1.85;;
86007;SDS011;76587;41.936;25.550;2024-03-29T09:31:24;4.03;;;2.58;;
86007;SDS011;76587;41.936;25.550;2024-03-29T09:33:49;5.35;;;2.25;;
86007;SDS011;76587;41.936;25.550;2024-03-29T09:36:21;5.32;;;2.15;;
86007;SDS011;76587;41.936;25.550;2024-03-29T09:38:48;4.20;;;1.92;;
86007;SDS011;76587;41.936;25.550;2024-03-29T09:41:15;4.25;;;2.45;;
86007;SDS011;76587;41.936;25.550;2024-03-29T09:43:44;5.47;;;2.47;;
86007;SDS011;76587;41.936;25.550;2024-03-29T09:46:11;4.78;;;2.58;;
86007;SDS011;76587;41.936;25.550;2024-03-29T09:48:40;3.65;;;3.30;;
86007;SDS011;76587;41.936;25.550;2024-03-29T09:51:07;6.25;;;2.90;;
86007;SDS011;76587;41.936;25.550;2024-03-29T09:53:35;4.63;;;2.50;;
86007;SDS011;76587;41.936;25.550;2024-03-29T09:56:03;5.25;;;2.75;;
86007;SDS011;76587;41.936;25.550;2024-03-29T09:58:30;4.25;;;2.65;;
86007;SDS011;76587;41.936;25.550;2024-03-29T10:00:56;7.90;;;2.42;;
86007;SDS011;76587;41.936;25.550;2024-03-29T10:03:23;3.33;;;2.17;;
86007;SDS011;76587;41.936;25.550;2024-03-29T10:05:54;4.05;;;3.03;;
86007;SDS011;76587;41.936;25.550;2024-03-29T10:08:21;9.45;;;3.53;;
86007;SDS011;76587;41.936;25.550;2024-03-29T10:10:47;3.50;;;2.85;;
86007;SDS011;76587;41.936;25.550;2024-03-29T10:13:14;5.55;;;2.92;;
86007;SDS011;76587;41.936;25.550;2024-03-29T10:15:39;4.45;;;2.45;;
86007;SDS011;76587;41.936;25.550;2024-03-29T10:18:09;4.18;;;1.80;;
86007;SDS011;76587;41.936;25.550;2024-03-29T10:20:35;5.40;;;3.00;;
86007;SDS011;76587;41.936;25.550;2024-03-29T10:23:01;6.13;;;3.53;;
86007;SDS011;76587;41.936;25.550;2024-03-29T10:27:56;3.92;;;2.45;;
86007;SDS011;76587;41.936;25.550;2024-03-29T10:30:24;6.80;;;2.15;;
86007;SDS011;76587;41.936;25.550;2024-03-29T10:32:50;2.85;;;1.80;;
86007;SDS011;76587;41.936;25.550;2024-03-29T10:35:16;3.80;;;2.42;;
86007;SDS011;76587;41.936;25.550;2024-03-29T10:37:42;7.22;;;3.00;;
86007;SDS011;76587;41.936;25.550;2024-03-29T10:40:09;2.80;;;1.95;;
86007;SDS011;76587;41.936;25.550;2024-03-29T10:42:38;4.75;;;2.40;;
86007;SDS011;76587;41.936;25.550;2024-03-29T10:45:06;6.40;;;2.88;;
86007;SDS011;76587;41.936;25.550;2024-03-29T10:47:32;8.00;;;5.57;;
86007;SDS011;76587;41.936;25.550;2024-03-29T10:49:58;8.38;;;2.35;;
86007;SDS011;76587;41.936;25.550;2024-03-29T10:52:24;3.38;;;1.73;;
86007;SDS011;76587;41.936;25.550;2024-03-29T10:54:51;3.83;;;2.03;;
86007;SDS011;76587;41.936;25.550;2024-03-29T10:57:21;2.35;;;1.30;;
86007;SDS011;76587;41.936;25.550;2024-03-29T10:59:52;8.80;;;3.03;;
86007;SDS011;76587;41.936;25.550;2024-03-29T11:03:09;3.80;;;2.17;;
86007;SDS011;76587;41.936;25.550;2024-03-29T11:05:35;5.15;;;2.67;;
86007;SDS011;76587;41.936;25.550;2024-03-29T11:08:03;5.40;;;2.00;;
86007;SDS011;76587;41.936;25.550;2024-03-29T11:15:59;3.50;;;1.13;;
86007;SDS011;76587;41.936;25.550;2024-03-29T11:18:26;2.58;;;0.93;;
86007;SDS011;76587;41.936;25.550;2024-03-29T11:20:53;2.22;;;0.90;;
86007;SDS011;76587;41.936;25.550;2024-03-29T11:23:20;6.18;;;1.23;;
86007;SDS011;76587;41.936;25.550;2024-03-29T11:25:54;2.88;;;0.80;;
86007;SDS011;76587;41.936;25.550;2024-03-29T11:28:24;5.97;;;1.35;;
86007;SDS011;76587;41.936;25.550;2024-03-29T11:30:51;3.90;;;1.58;;
86007;SDS011;76587;41.936;25.550;2024-03-29T11:33:34;4.28;;;0.95;;
86007;SDS011;76587;41.936;25.550;2024-03-29T11:38:37;3.97;;;1.00;;
86007;SDS011;76587;41.936;25.550;2024-03-29T11:41:06;5.10;;;1.02;;
86007;SDS011;76587;41.936;25.550;2024-03-29T11:43:35;2.08;;;1.08;;
86007;SDS011;76587;41.936;25.550;2024-03-29T11:46:02;3.10;;;1.20;;
86007;SDS011;76587;41.936;25.550;2024-03-29T11:48:30;3.03;;;0.88;;
86007;SDS011;76587;41.936;25.550;2024-03-29T11:50:56;3.15;;;0.85;;
86007;SDS011;76587;41.936;25.550;2024-03-29T11:53:22;5.28;;;1.20;;
86007;SDS011;76587;41.936;25.550;2024-03-29T11:55:48;6.20;;;1.17;;
86007;SDS011;76587;41.936;25.550;2024-03-29T11:58:18;3.67;;;1.05;;
86007;SDS011;76587;41.936;25.550;2024-03-29T12:00:47;4.28;;;0.75;;
86007;SDS011;76587;41.936;25.550;2024-03-29T12:03:15;2.90;;;1.02;;
86007;SDS011;76587;41.936;25.550;2024-03-29T12:05:42;2.50;;;1.05;;
86007;SDS011;76587;41.936;25.550;2024-03-29T12:08:09;6.10;;;1.55;;
86007;SDS011;76587;41.936;25.550;2024-03-29T12:10:36;5.53;;;1.35;;
86007;SDS011;76587;41.936;25.550;2024-03-29T12:13:02;3.20;;;1.15;;
86007;SDS011;76587;41.936;25.550;2024-03-29T12:15:29;6.72;;;1.00;;
86007;SDS011;76587;41.936;25.550;2024-03-29T12:17:56;2.70;;;1.10;;
86007;SDS011;76587;41.936;25.550;2024-03-29T12:20:25;9.23;;;2.78;;
86007;SDS011;76587;41.936;25.550;2024-03-29T12:22:51;7.95;;;1.85;;
86007;SDS011;76587;41.936;25.550;2024-03-29T12:25:17;6.13;;;1.13;;
86007;SDS011;76587;41.936;25.550;2024-03-29T12:27:44;4.53;;;0.85;;
86007;SDS011;76587;41.936;25.550;2024-03-29T12:30:12;7.20;;;1.77;;
86007;SDS011;76587;41.936;25.550;2024-03-29T12:32:41;4.30;;;0.90;;
86007;SDS011;76587;41.936;25.550;2024-03-29T12:35:16;5.70;;;0.75;;
86007;SDS011;76587;41.936;25.550;2024-03-29T12:37:48;5.05;;;2.00;;
86007;SDS011;76587;41.936;25.550;2024-03-29T12:40:16;3.38;;;0.93;;
86007;SDS011;76587;41.936;25.550;2024-03-29T12:42:47;4.85;;;1.35;;
86007;SDS011;76587;41.936;25.550;2024-03-29T12:45:14;2.65;;;0.55;;
86007;SDS011;76587;41.936;25.550;2024-03-29T12:47:39;4.13;;;1.10;;
86007;SDS011;76587;41.936;25.550;2024-03-29T12:50:05;2.90;;;1.15;;
86007;SDS011;76587;41.936;25.550;2024-03-29T12:52:37;3.13;;;1.00;;
86007;SDS011;76587;41.936;25.550;2024-03-29T12:55:04;3.60;;;1.63;;
86007;SDS011;76587;41.936;25.550;2024-03-29T12:57:32;3.85;;;1.02;;
86007;SDS011;76587;41.936;25.550;2024-03-29T12:59:58;5.28;;;1.52;;
86007;SDS011;76587;41.936;25.550;2024-03-29T13:02:23;5.75;;;1.15;;
86007;SDS011;76587;41.936;25.550;2024-03-29T13:04:48;10.05;;;1.50;;
86007;SDS011;76587;41.936;25.550;2024-03-29T13:07:16;3.80;;;1.08;;
86007;SDS011;76587;41.936;25.550;2024-03-29T13:09:42;2.75;;;1.35;;
86007;SDS011;76587;41.936;25.550;2024-03-29T13:12:07;2.67;;;1.10;;
86007;SDS011;76587;41.936;25.550;2024-03-29T13:14:33;3.13;;;0.75;;
86007;SDS011;76587;41.936;25.550;2024-03-29T13:16:59;3.53;;;1.27;;
86007;SDS011;76587;41.936;25.550;2024-03-29T13:19:24;2.35;;;0.73;;
86007;SDS011;76587;41.936;25.550;2024-03-29T13:21:50;2.17;;;0.98;;
86007;SDS011;76587;41.936;25.550;2024-03-29T13:24:16;2.08;;;0.82;;
86007;SDS011;76587;41.936;25.550;2024-03-29T13:26:41;6.68;;;2.00;;
86007;SDS011;76587;41.936;25.550;2024-03-29T13:29:06;11.20;;;2.92;;
86007;SDS011;76587;41.936;25.550;2024-03-29T13:31:32;5.53;;;1.10;;
86007;SDS011;76587;41.936;25.550;2024-03-29T13:33:58;2.03;;;0.93;;
86007;SDS011;76587;41.936;25.550;2024-03-29T13:36:37;3.15;;;0.88;;
86007;SDS011;76587;41.936;25.550;2024-03-29T13:39:06;2.70;;;1.23;;
86007;SDS011;76587;41.936;25.550;2024-03-29T13:41:33;2.65;;;0.63;;
86007;SDS011;76587;41.936;25.550;2024-03-29T13:44:02;4.78;;;2.03;;
86007;SDS011;76587;41.936;25.550;2024-03-29T13:46:33;3.08;;;1.17;;
86007;SDS011;76587;41.936;25.550;2024-03-29T13:48:59;1.80;;;1.10;;
86007;SDS011;76587;41.936;25.550;2024-03-29T13:51:27;2.63;;;0.90;;
86007;SDS011;76587;41.936;25.550;2024-03-29T13:53:53;3.45;;;2.03;;
86007;SDS011;76587;41.936;25.550;2024-03-29T13:56:21;4.05;;;1.50;;
86007;SDS011;76587;41.936;25.550;2024-03-29T13:58:47;3.45;;;0.77;;
86007;SDS011;76587;41.936;25.550;2024-03-29T14:01:13;2.58;;;0.75;;
86007;SDS011;76587;41.936;25.550;2024-03-29T14:03:38;5.18;;;1.38;;
86007;SDS011;76587;41.936;25.550;2024-03-29T14:06:04;3.55;;;1.48;;
86007;SDS011;76587;41.936;25.550;2024-03-29T14:08:30;4.35;;;1.05;;
86007;SDS011;76587;41.936;25.550;2024-03-29T14:10:56;5.35;;;1.75;;
86007;SDS011;76587;41.936;25.550;2024-03-29T14:13:23;3.22;;;1.17;;
86007;SDS011;76587;41.936;25.550;2024-03-29T14:15:48;3.75;;;1.00;;
86007;SDS011;76587;41.936;25.550;2024-03-29T14:18:14;2.92;;;1.02;;
86007;SDS011;76587;41.936;25.550;2024-03-29T14:20:40;4.20;;;0.98;;
86007;SDS011;76587;41.936;25.550;2024-03-29T14:23:05;7.05;;;1.13;;
86007;SDS011;76587;41.936;25.550;2024-03-29T14:25:34;2.42;;;0.77;;
86007;SDS011;76587;41.936;25.550;2024-03-29T14:28:01;4.35;;;0.68;;
86007;SDS011;76587;41.936;25.550;2024-03-29T14:30:28;2.78;;;0.68;;
86007;SDS011;76587;41.936;25.550;2024-03-29T14:35:22;2.28;;;1.05;;
86007;SDS011;76587;41.936;25.550;2024-03-29T14:37:49;2.25;;;0.70;;